»·PEaware :: N511H MMML-KFUL

N511H :: MMML-KFUL

FLIGHT INFORMATION

Flight Status: Arrived
Operator: Privately registered:
United States
More flights under this callsign
Pilot: Edward H. (2712)
Aircraft: Unknown
(B429)
More flights by this aircraft type
Origin: MMML Gen Rodolfo Sanchez Taboada
Mexico
Destination: KFUL Fullerton Mun
United States
More flights between these airports :: More routes between these airports
Route: +VFR MMML - KFUL
File this flight plan on PilotEdge
Remarks: Helicopter Ferry Flight For HFS (FSEconomy)
Altitude:
(Current/Filed)
7,500ft
Speed:
(Current/Filed)
150kts
Departed: 29-Jun-18 09:23 AM
Arrived: 29-Jun-18 10:31 AM
Distance/Time
Traveled:
156nm/1:08
Distance/Time
To Go:
Arrived

Flight Plot

Page will automatically refresh every two minutes.

Flight plan parsing failed; only flown route is shown


Map Options




Map Legend


Flown Route
Filed Route
Departure Airport
Arrival Airport
Navaid (VOR, NDB)
Fix

Horizontal Profiles

Position Reports

Time Latitude Longitude Heading Altitude Ground
Speed
29-Jun-18 09:22 32.628696 -115.248387 284 233ft 53kts
29-Jun-18 09:23 32.636559 -115.290601 279 539ft 158kts
29-Jun-18 09:24 32.645733 -115.341934 280 442ft 160kts
29-Jun-18 09:25 32.655776 -115.392972 281 408ft 160kts
29-Jun-18 09:26 32.666994 -115.444407 283 859ft 160kts
29-Jun-18 09:27 32.678801 -115.495613 282 1496ft 161kts
29-Jun-18 09:28 32.688651 -115.538688 282 2136ft 155kts
29-Jun-18 09:29 32.699875 -115.588230 280 2709ft 156kts
29-Jun-18 09:30 32.709321 -115.638188 279 2625ft 155kts
29-Jun-18 09:31 32.719003 -115.686987 280 2640ft 153kts
29-Jun-18 09:32 32.729769 -115.736352 281 2629ft 155kts
29-Jun-18 09:33 32.740814 -115.785785 281 2646ft 155kts
29-Jun-18 09:34 32.749674 -115.825331 281 2645ft 154kts
29-Jun-18 09:35 32.759917 -115.874249 277 2643ft 152kts
29-Jun-18 09:36 32.767519 -115.924414 276 2638ft 152kts
29-Jun-18 09:37 32.774345 -115.974300 275 2641ft 152kts
29-Jun-18 09:38 32.780443 -116.024217 274 2628ft 153kts
29-Jun-18 09:39 32.787113 -116.074241 275 2645ft 153kts
29-Jun-18 09:40 32.805605 -116.119008 305 2633ft 158kts
29-Jun-18 09:41 32.833081 -116.159075 307 2635ft 158kts
29-Jun-18 09:42 32.861255 -116.200263 308 2927ft 159kts
29-Jun-18 09:43 32.888434 -116.239903 304 3668ft 148kts
29-Jun-18 09:44 32.911647 -116.280366 302 3772ft 150kts
29-Jun-18 09:45 32.933489 -116.322563 303 3880ft 149kts
29-Jun-18 09:46 32.955304 -116.364536 302 3990ft 148kts
29-Jun-18 09:47 32.975002 -116.403084 301 4099ft 148kts
29-Jun-18 09:48 32.998130 -116.443666 306 4181ft 149kts
29-Jun-18 09:49 33.022998 -116.482838 307 4266ft 149kts
29-Jun-18 09:50 33.048569 -116.521963 307 4239ft 150kts
29-Jun-18 09:51 33.074525 -116.560716 309 4302ft 151kts
29-Jun-18 09:52 33.100605 -116.598837 308 4501ft 149kts
29-Jun-18 09:53 33.126792 -116.633604 314 4554ft 149kts
29-Jun-18 09:54 33.154970 -116.667752 313 4517ft 150kts
29-Jun-18 09:55 33.184065 -116.701543 316 4511ft 149kts
29-Jun-18 09:56 33.214671 -116.734146 318 4366ft 152kts
29-Jun-18 09:57 33.244029 -116.770641 302 4362ft 152kts
29-Jun-18 09:58 33.264870 -116.813621 297 4361ft 150kts
29-Jun-18 09:59 33.283935 -116.858045 295 4317ft 150kts
29-Jun-18 10:00 33.302116 -116.900122 297 4291ft 150kts
29-Jun-18 10:01 33.320564 -116.944686 296 3304ft 154kts
29-Jun-18 10:02 33.338600 -116.988145 288 1836ft 132kts
29-Jun-18 10:03 33.358336 -117.028266 311 1287ft 142kts
29-Jun-18 10:04 33.380205 -117.068474 303 1346ft 150kts
29-Jun-18 10:05 33.414510 -117.082645 2 1765ft 148kts
29-Jun-18 10:06 33.451632 -117.104501 312 1449ft 166kts
29-Jun-18 10:07 33.479154 -117.143743 306 1685ft 155kts
29-Jun-18 10:08 33.509329 -117.175857 306 1544ft 153kts
29-Jun-18 10:09 33.528118 -117.219001 288 1879ft 154kts
29-Jun-18 10:10 33.540320 -117.266080 287 2084ft 156kts
29-Jun-18 10:11 33.558546 -117.294164 313 3780ft 118kts
29-Jun-18 10:12 33.568843 -117.313341 305 5518ft 98kts
29-Jun-18 10:13 33.588608 -117.346539 306 5505ft 150kts
29-Jun-18 10:14 33.612528 -117.387627 304 5503ft 156kts
29-Jun-18 10:15 33.634560 -117.428575 302 5504ft 153kts
29-Jun-18 10:16 33.655866 -117.470744 301 5503ft 150kts
29-Jun-18 10:17 33.676756 -117.512482 301 5500ft 150kts
29-Jun-18 10:18 33.697328 -117.553037 301 5507ft 148kts
29-Jun-18 10:19 33.715991 -117.589475 302 5504ft 150kts
29-Jun-18 10:20 33.735174 -117.626370 301 5799ft 150kts
29-Jun-18 10:21 33.752717 -117.662274 301 5448ft 151kts
29-Jun-18 10:22 33.771726 -117.699016 302 4659ft 149kts
29-Jun-18 10:23 33.794530 -117.735056 307 4627ft 147kts
29-Jun-18 10:24 33.818619 -117.771333 307 4097ft 147kts
29-Jun-18 10:25 33.843837 -117.808361 309 2399ft 145kts
29-Jun-18 10:26 33.852939 -117.853371 277 816ft 152kts
29-Jun-18 10:27 33.865853 -117.898772 302 1079ft 154kts
29-Jun-18 10:28 33.874647 -117.898871 254 1248ft 149kts
29-Jun-18 10:29 33.878234 -117.916372 280 1023ft 145kts
29-Jun-18 10:30 33.877500 -117.950933 257 536ft 77kts
29-Jun-18 10:31 33.873090 -117.974391 266 138ft 30kts
29-Jun-18 10:32 33.872000 -117.977523 167 101ft 0kts
29-Jun-18 10:33 33.870874 -117.978560 182 103ft 9kts
29-Jun-18 10:34 33.870777 -117.978671 348 101ft 0kts
29-Jun-18 10:35 33.870777 -117.978671 348 101ft 0kts
29-Jun-18 10:36 33.870777 -117.978671 348 101ft 0kts
29-Jun-18 10:38 33.870777 -117.978672 349 101ft 0kts
29-Jun-18 10:39 33.870777 -117.978672 349 101ft 0kts
29-Jun-18 10:40 33.870777 -117.978672 349 101ft 0kts
29-Jun-18 10:41 33.870777 -117.978672 349 101ft 0kts
29-Jun-18 10:42 33.870777 -117.978672 349 101ft 0kts
29-Jun-18 10:43 33.870777 -117.978672 349 101ft 0kts
29-Jun-18 10:43 33.870777 -117.978672 349 101ft 0kts
29-Jun-18 10:44 33.870777 -117.978672 349 101ft 0kts
29-Jun-18 10:45 33.870777 -117.978672 349 101ft 0kts
29-Jun-18 10:46 33.870777 -117.978672 349 101ft 0kts

Navigation Log

Ident Type
Flight plan parsing failed, navigation log unavailable